This is the latest recevied weather packets stored in our database for station/object KO4LCK. If no packets are shown the sender has not sent any weather packets the latest 10 day(s).
| Time | Temp. | Humidity | Pressure | Rain* | Wind** | Luminosity | Snow |
|---|---|---|---|---|---|---|---|
| 1787872246 | 30.56° C | 63% | 1014.8 hPa | 0 mm | - | 34 W/m² | - |
| 1787871946 | 31.11° C | 61% | 1014.7 hPa | 0 mm | - | 37 W/m² | - |
| 1787871641 | 31.11° C | 60% | 1014.8 hPa | 0 mm | - | 40 W/m² | - |
| 1787871337 | 31.67° C | 58% | 1014.5 hPa | 0 mm | - | 44 W/m² | - |
| 1787871032 | 32.22° C | 56% | 1014.7 hPa | 0 mm | - | 47 W/m² | - |
| 1787870731 | 33.33° C | 55% | 1014.7 hPa | 0 mm | - | 60 W/m² | - |
| 1787870427 | 33.89° C | 52% | 1014.6 hPa | 0 mm | - | 105 W/m² | - |
| 1787870121 | 33.89° C | 53% | 1014.6 hPa | 0 mm | - | 97 W/m² | - |
| 1787869821 | 33.89° C | 52% | 1014.5 hPa | 0 mm | - | 161 W/m² | - |
| 1787869520 | 33.33° C | 53% | 1014.6 hPa | 0 mm | - | 179 W/m² | - |
| 1787869216 | 33.89° C | 52% | 1014.5 hPa | 0 mm | - | 196 W/m² | - |
| 1787868915 | 33.33° C | 53% | 1014.4 hPa | 0 mm | - | 214 W/m² | - |
| 1787868614 | 33.33° C | 52% | 1014.4 hPa | 0 mm | - | 230 W/m² | - |
| 1787868312 | 33.33° C | 52% | 1014.5 hPa | 0 mm | - | 247 W/m² | - |
| 1787868009 | 33.33° C | 54% | 1014.4 hPa | 0 mm | - | 262 W/m² | - |
| 1787867704 | 33.33° C | 52% | 1014.4 hPa | 0 mm | - | 282 W/m² | - |
| 1787867404 | 33.33° C | 53% | 1014.5 hPa | 0 mm | - | 297 W/m² | - |
| 1787867099 | 33.89° C | 52% | 1014.4 hPa | 0 mm | - | 321 W/m² | - |
| 1787866794 | 33.33° C | 53% | 1014.4 hPa | 0 mm | - | 304 W/m² | - |
| 1787866494 | 33.33° C | 53% | 1014.5 hPa | 0 mm | - | 312 W/m² | - |
| 1787866192 | 33.33° C | 55% | 1014.6 hPa | 0 mm | - | 336 W/m² | - |
| 1787865888 | 33.33° C | 53% | 1014.5 hPa | 0 mm | - | 311 W/m² | - |
| 1787865583 | 32.78° C | 53% | 1014.5 hPa | 0 mm | - | 338 W/m² | - |
| 1787865278 | 32.78° C | 54% | 1014.6 hPa | 0 mm | - | 294 W/m² | - |
| 1787864974 | 32.22° C | 55% | 1014.6 hPa | 0 mm | - | 359 W/m² | - |
* Rain latest hour (hover to see other rain measurements)
** Current wind speed in m/s (hover to see current wind gust speed)